createdAt,value
2019-01-21T00:02:16.489Z,95093.30
2019-01-21T00:04:49.235Z,95092.94
2019-01-21T00:07:21.915Z,95105.06
2019-01-21T00:09:54.578Z,95103.31
2019-01-21T00:12:27.316Z,95097.24
2019-01-21T00:15:00.013Z,95098.80
2019-01-21T00:17:51.544Z,95116.53
2019-01-21T00:20:24.240Z,95110.59
2019-01-21T00:22:57.012Z,95116.75
2019-01-21T00:25:35.178Z,95113.97
2019-01-21T00:28:09.257Z,95114.38
2019-01-21T00:30:41.990Z,95112.28
2019-01-21T00:33:14.765Z,95109.58
2019-01-21T00:35:47.532Z,95118.41
2019-01-21T00:38:20.239Z,95124.17
2019-01-21T00:40:53.125Z,95119.97
2019-01-21T00:43:25.830Z,95124.63
2019-01-21T00:45:58.542Z,95126.18
2019-01-21T00:48:31.178Z,95115.61
2019-01-21T00:51:03.908Z,95120.73
2019-01-21T00:53:36.610Z,95127.18
2019-01-21T00:56:09.312Z,95128.73
2019-01-21T00:58:42.056Z,95124.66
2019-01-21T01:01:14.336Z,95122.84
2019-01-21T01:03:47.033Z,95123.78
2019-01-21T01:06:19.771Z,95122.37
2019-01-21T01:08:52.440Z,95130.11
2019-01-21T01:11:25.233Z,95122.51
2019-01-21T01:13:57.931Z,95130.71
2019-01-21T01:16:30.635Z,95124.14
2019-01-21T01:19:03.663Z,95127.89
2019-01-21T01:21:36.471Z,95126.45
2019-01-21T01:24:09.221Z,95130.16
2019-01-21T01:26:41.942Z,95127.30
2019-01-21T01:29:14.627Z,95136.77
2019-01-21T01:31:47.372Z,95136.13
2019-01-21T01:34:20.133Z,95138.66
2019-01-21T01:36:52.863Z,95141.50
2019-01-21T01:39:26.682Z,95142.49
2019-01-21T01:41:59.502Z,95146.20
2019-01-21T01:44:32.743Z,95146.46
2019-01-21T01:47:05.477Z,95144.39
2019-01-21T01:49:38.244Z,95146.64
2019-01-21T01:52:11.159Z,95155.79
2019-01-21T01:54:44.025Z,95144.92
2019-01-21T01:57:16.786Z,95148.02
2019-01-21T01:59:49.519Z,95154.09
2019-01-21T02:02:22.370Z,95153.41
2019-01-21T02:04:55.320Z,95151.27
2019-01-21T02:07:28.093Z,95145.00
2019-01-21T02:10:00.924Z,95146.20
2019-01-21T02:12:33.750Z,95138.28
2019-01-21T02:15:10.263Z,95143.14
2019-01-21T02:17:43.072Z,95145.78
2019-01-21T02:20:16.725Z,95142.45
2019-01-21T02:22:54.461Z,95138.06
2019-01-21T02:25:47.919Z,95144.46
2019-01-21T02:29:05.950Z,95136.72
2019-01-21T02:32:56.804Z,95130.69
2019-01-21T02:36:24.235Z,95135.39
2019-01-21T02:39:46.275Z,95135.37
2019-01-21T02:43:08.566Z,95136.09
2019-01-21T02:46:08.340Z,95136.53
2019-01-21T02:49:25.927Z,95139.25
2019-01-21T02:52:44.670Z,95130.16
2019-01-21T02:55:54.324Z,95129.45
2019-01-21T02:59:01.640Z,95126.62
2019-01-21T03:02:27.510Z,95131.08
2019-01-21T03:05:51.562Z,95140.42
2019-01-21T03:09:29.058Z,95133.31
2019-01-21T03:12:42.441Z,95129.17
2019-01-21T03:16:26.224Z,95129.19
2019-01-21T03:19:47.310Z,95136.06
2019-01-21T03:23:18.839Z,95131.81
2019-01-21T03:27:05.577Z,95136.72
2019-01-21T03:30:18.138Z,95131.92
2019-01-21T03:33:56.639Z,95131.81
2019-01-21T03:37:12.192Z,95139.25
2019-01-21T03:40:46.796Z,95132.65
2019-01-21T03:44:33.389Z,95135.69
2019-01-21T03:47:41.960Z,95128.75
2019-01-21T03:50:48.042Z,95135.38
2019-01-21T03:53:55.579Z,95132.13
2019-01-21T03:57:18.042Z,95137.95
2019-01-21T04:00:31.896Z,95138.07
2019-01-21T04:03:51.993Z,95137.93
2019-01-21T04:06:45.054Z,95133.98
2019-01-21T04:10:19.618Z,95131.37
2019-01-21T04:13:50.762Z,95136.29
2019-01-21T04:17:48.481Z,95129.89
2019-01-21T04:20:57.738Z,95124.38
2019-01-21T04:24:09.408Z,95134.34
2019-01-21T04:27:28.851Z,95134.09
2019-01-21T04:30:55.387Z,95131.75
2019-01-21T04:34:54.782Z,95133.10
2019-01-21T04:38:39.353Z,95142.00
2019-01-21T04:42:27.528Z,95139.55
2019-01-21T04:46:27.395Z,95149.27
2019-01-21T04:50:24.092Z,95145.73
2019-01-21T04:53:17.430Z,95155.09
2019-01-21T04:56:41.714Z,95161.70
2019-01-21T05:00:17.636Z,95164.75
2019-01-21T05:04:09.483Z,95159.38
2019-01-21T05:07:19.617Z,95166.98
2019-01-21T05:11:05.363Z,95160.78
2019-01-21T05:14:43.948Z,95164.59
2019-01-21T05:18:07.308Z,95164.08
2019-01-21T05:21:45.351Z,95173.95
2019-01-21T05:25:14.871Z,95169.69
2019-01-21T05:28:42.894Z,95175.23
2019-01-21T05:31:59.908Z,95173.59
2019-01-21T05:35:44.287Z,95185.66
2019-01-21T05:39:12.853Z,95189.34
2019-01-21T05:42:43.122Z,95189.04
2019-01-21T05:46:06.616Z,95194.28
2019-01-21T05:49:21.233Z,95193.72
2019-01-21T05:52:32.303Z,95188.84
2019-01-21T05:55:58.543Z,95192.77
2019-01-21T05:59:49.400Z,95193.72
2019-01-21T06:03:32.023Z,95192.91
2019-01-21T06:07:17.601Z,95195.95
2019-01-21T06:10:18.280Z,95204.64
2019-01-21T06:13:39.909Z,95202.22
2019-01-21T06:17:05.110Z,95209.78
2019-01-21T06:20:34.004Z,95210.68
2019-01-21T06:23:40.971Z,95211.86
2019-01-21T06:27:13.500Z,95209.63
2019-01-21T06:30:17.293Z,95215.14
2019-01-21T06:33:53.056Z,95221.98
2019-01-21T06:37:29.590Z,95224.98
2019-01-21T06:41:10.559Z,95223.59
2019-01-21T06:44:01.877Z,95229.53
2019-01-21T06:47:31.303Z,95225.95
2019-01-21T06:51:02.691Z,95230.92
2019-01-21T06:54:45.984Z,95237.34
2019-01-21T06:58:45.660Z,95240.38
2019-01-21T07:02:07.320Z,95242.14
2019-01-21T07:05:53.698Z,95242.98
2019-01-21T07:09:17.537Z,95245.49
2019-01-21T07:12:27.308Z,95256.72
2019-01-21T07:16:02.415Z,95264.77
2019-01-21T07:19:30.849Z,95261.92
2019-01-21T07:22:55.207Z,95270.63
2019-01-21T07:26:19.594Z,95258.91
2019-01-21T07:30:34.806Z,95273.33
2019-01-21T07:33:58.643Z,95267.30
2019-01-21T07:37:33.034Z,95265.53
2019-01-21T07:40:55.561Z,95270.88
2019-01-21T07:44:19.493Z,95264.89
2019-01-21T07:47:59.086Z,95265.09
2019-01-21T07:51:36.767Z,95258.50
2019-01-21T07:54:43.441Z,95263.94
2019-01-21T07:58:17.195Z,95263.84
2019-01-21T08:01:25.070Z,95268.66
2019-01-21T08:04:58.445Z,95271.47
2019-01-21T08:07:59.293Z,95274.79
2019-01-21T08:11:42.010Z,95273.74
2019-01-21T08:15:17.607Z,95279.39
2019-01-21T08:18:47.745Z,95274.08
2019-01-21T08:21:57.786Z,95279.76
2019-01-21T08:25:15.041Z,95286.78
2019-01-21T08:28:22.248Z,95282.73
2019-01-21T08:32:02.506Z,95292.27
2019-01-21T08:35:06.807Z,95297.36
2019-01-21T08:38:53.230Z,95299.45
2019-01-21T08:42:39.129Z,95293.16
2019-01-21T08:45:59.440Z,95306.26
2019-01-21T08:49:32.982Z,95300.91
2019-01-21T08:52:34.828Z,95303.70
2019-01-21T08:55:56.284Z,95304.72
2019-01-21T08:59:20.003Z,95308.33
2019-01-21T09:02:57.765Z,95304.31
2019-01-21T09:06:26.893Z,95304.16
2019-01-21T09:09:11.822Z,95309.31
2019-01-21T09:12:36.865Z,95314.99
2019-01-21T09:15:51.764Z,95310.40
2019-01-21T09:19:11.984Z,95317.42
2019-01-21T09:22:13.158Z,95317.91
2019-01-21T09:25:32.259Z,95317.61
2019-01-21T09:29:14.304Z,95314.63
2019-01-21T09:32:37.984Z,95320.64
2019-01-21T09:35:46.996Z,95325.86
2019-01-21T09:39:36.496Z,95326.97
2019-01-21T09:43:06.692Z,95322.11
2019-01-21T09:46:25.267Z,95319.80
2019-01-21T09:48:55.345Z,95321.23
2019-01-21T09:51:29.431Z,95312.78
2019-01-21T09:54:03.675Z,95325.62
2019-01-21T09:56:38.211Z,95322.55
2019-01-21T09:59:11.151Z,95321.16
2019-01-21T10:01:45.491Z,95329.36
2019-01-21T10:04:29.361Z,95326.19
2019-01-21T10:07:31.398Z,95322.26
2019-01-21T10:11:03.176Z,95321.59
2019-01-21T10:14:55.626Z,95325.87
2019-01-21T10:18:04.722Z,95328.00
2019-01-21T10:21:30.378Z,95329.03
2019-01-21T10:24:56.334Z,95323.45
2019-01-21T10:28:33.986Z,95324.75
2019-01-21T10:32:04.853Z,95319.45
2019-01-21T10:35:45.526Z,95325.42
2019-01-21T10:39:35.427Z,95327.41
2019-01-21T10:42:43.232Z,95322.47
2019-01-21T10:45:33.885Z,95318.92
2019-01-21T10:48:30.825Z,95317.78
2019-01-21T10:51:54.796Z,95310.23
2019-01-21T10:55:11.776Z,95300.63
2019-01-21T10:58:31.198Z,95308.31
2019-01-21T11:01:55.414Z,95309.25
2019-01-21T11:05:03.347Z,95312.27
2019-01-21T11:08:05.105Z,95301.39
2019-01-21T11:11:54.117Z,95306.64
2019-01-21T11:15:00.567Z,95309.39
2019-01-21T11:18:29.398Z,95308.83
2019-01-21T11:21:59.792Z,95307.39
2019-01-21T11:25:48.029Z,95304.28
2019-01-21T11:28:52.133Z,95312.77
2019-01-21T11:32:19.121Z,95312.03
2019-01-21T11:35:49.087Z,95312.87
2019-01-21T11:38:59.270Z,95308.92
2019-01-21T11:42:18.020Z,95305.38
2019-01-21T11:45:35.537Z,95302.59
2019-01-21T11:48:54.983Z,95298.11
2019-01-21T11:52:36.556Z,95293.11
2019-01-21T11:55:46.759Z,95290.72
2019-01-21T11:59:06.541Z,95289.69
2019-01-21T12:02:02.905Z,95294.69
2019-01-21T12:05:24.930Z,95300.90
2019-01-21T12:08:56.468Z,95299.52
2019-01-21T12:12:24.077Z,95295.69
2019-01-21T12:15:54.028Z,95300.91
2019-01-21T12:19:16.184Z,95296.76
2019-01-21T12:22:38.566Z,95297.43
2019-01-21T12:25:32.830Z,95292.36
2019-01-21T12:28:43.156Z,95293.50
2019-01-21T12:32:09.003Z,95299.04
2019-01-21T12:35:25.918Z,95299.44
2019-01-21T12:38:56.416Z,95296.94
2019-01-21T12:42:04.080Z,95305.25
2019-01-21T12:45:18.700Z,95295.04
2019-01-21T12:48:31.328Z,95291.69
2019-01-21T12:51:36.640Z,95287.54
2019-01-21T12:54:59.635Z,95282.61
2019-01-21T12:58:14.934Z,95280.86
2019-01-21T13:01:33.757Z,95272.92
2019-01-21T13:05:10.940Z,95277.13
2019-01-21T13:08:39.480Z,95272.14
2019-01-21T13:12:11.476Z,95272.34
2019-01-21T13:15:57.997Z,95266.86
2019-01-21T13:19:17.264Z,95264.49
2019-01-21T13:22:58.055Z,95255.92
2019-01-21T13:26:48.432Z,95261.59
2019-01-21T13:30:17.018Z,95252.52
2019-01-21T13:33:44.512Z,95248.53
2019-01-21T13:37:25.116Z,95253.17
2019-01-21T13:41:10.107Z,95247.04
2019-01-21T13:44:28.870Z,95249.05
2019-01-21T13:47:53.321Z,95246.45
2019-01-21T13:50:57.219Z,95247.38
2019-01-21T13:54:11.188Z,95248.41
2019-01-21T13:57:32.821Z,95252.33
2019-01-21T14:00:33.420Z,95254.97
2019-01-21T14:03:48.138Z,95249.43
2019-01-21T14:07:11.541Z,95254.30
2019-01-21T14:10:30.282Z,95253.09
2019-01-21T14:13:58.083Z,95253.76
2019-01-21T14:17:33.905Z,95247.36
2019-01-21T14:21:18.182Z,95249.62
2019-01-21T14:24:38.981Z,95250.52
2019-01-21T14:27:58.550Z,95246.80
2019-01-21T14:31:36.185Z,95243.19
2019-01-21T14:34:34.073Z,95252.25
2019-01-21T14:37:58.456Z,95240.30
2019-01-21T14:41:19.154Z,95236.70
2019-01-21T14:44:41.885Z,95230.77
2019-01-21T14:48:18.713Z,95237.28
2019-01-21T14:52:03.562Z,95236.84
2019-01-21T14:55:28.002Z,95228.91
2019-01-21T14:58:39.277Z,95239.73
2019-01-21T15:01:48.260Z,95238.91
2019-01-21T15:05:14.533Z,95241.86
2019-01-21T15:08:17.915Z,95243.53
2019-01-21T15:11:42.213Z,95250.52
2019-01-21T15:14:47.940Z,95245.32
2019-01-21T15:18:15.535Z,95239.13
2019-01-21T15:28:05.157Z,95236.80
2019-01-21T15:31:55.950Z,95234.37
2019-01-21T15:35:46.786Z,95239.31
2019-01-21T15:39:14.245Z,95236.63
2019-01-21T15:42:46.289Z,95245.98
2019-01-21T15:46:21.420Z,95242.31
2019-01-21T15:49:23.584Z,95239.36
2019-01-21T15:52:18.598Z,95238.28
2019-01-21T15:55:42.637Z,95250.03
2019-01-21T15:59:20.014Z,95247.86
2019-01-21T16:02:25.819Z,95245.22
2019-01-21T16:05:49.734Z,95250.77
2019-01-21T16:08:34.612Z,95244.48
2019-01-21T16:12:37.627Z,95244.63
2019-01-21T16:16:16.998Z,95241.31
2019-01-21T16:19:06.929Z,95239.00
2019-01-21T16:22:52.766Z,95235.64
2019-01-21T16:26:06.307Z,95232.18
2019-01-21T16:29:24.457Z,95231.58
2019-01-21T16:32:13.274Z,95230.23
2019-01-21T16:35:26.893Z,95237.59
2019-01-21T16:38:38.802Z,95237.20
2019-01-21T16:41:48.958Z,95236.50
2019-01-21T16:44:21.589Z,95235.69
2019-01-21T16:46:54.220Z,95235.45
2019-01-21T16:49:27.102Z,95239.08
2019-01-21T16:51:59.799Z,95235.17
2019-01-21T16:54:33.963Z,95233.94
2019-01-21T16:57:09.181Z,95233.95
2019-01-21T16:59:43.128Z,95231.80
2019-01-21T17:02:17.305Z,95228.68
2019-01-21T17:04:58.451Z,95225.79
2019-01-21T17:07:33.919Z,95228.41
2019-01-21T17:10:11.826Z,95220.98
2019-01-21T17:12:47.465Z,95223.63
2019-01-21T17:15:20.496Z,95222.20
2019-01-21T17:17:57.646Z,95216.61
2019-01-21T17:20:29.967Z,95221.75
2019-01-21T17:23:02.550Z,95218.96
2019-01-21T17:25:35.192Z,95223.63
2019-01-21T17:28:08.208Z,95225.19
2019-01-21T17:30:44.418Z,95222.41
2019-01-21T17:33:17.490Z,95227.59
2019-01-21T17:35:50.638Z,95227.95
2019-01-21T17:38:23.528Z,95229.20
2019-01-21T17:40:56.542Z,95227.46
2019-01-21T17:43:29.407Z,95226.97
2019-01-21T17:46:03.598Z,95230.41
2019-01-21T17:48:36.517Z,95225.33
2019-01-21T17:51:11.684Z,95223.94
2019-01-21T17:53:51.107Z,95229.39
2019-01-21T17:56:22.165Z,95230.22
2019-01-21T17:58:55.447Z,95233.70
2019-01-21T18:01:28.459Z,95235.34
2019-01-21T18:04:01.196Z,95229.63
2019-01-21T18:06:33.901Z,95231.73
2019-01-21T18:09:10.446Z,95228.98
2019-01-21T18:11:43.599Z,95233.88
2019-01-21T18:14:15.637Z,95230.99
2019-01-21T18:16:48.377Z,95233.66
2019-01-21T18:19:21.125Z,95235.21
2019-01-21T18:21:56.388Z,95240.01
2019-01-21T18:24:29.162Z,95232.37
2019-01-21T18:27:01.983Z,95237.30
2019-01-21T18:29:34.669Z,95236.44
2019-01-21T18:32:07.562Z,95239.65
2019-01-21T18:34:40.416Z,95241.25
2019-01-21T18:37:13.160Z,95247.88
2019-01-21T18:39:45.947Z,95246.38
2019-01-21T18:42:18.855Z,95251.02
2019-01-21T18:44:51.646Z,95250.95
2019-01-21T18:47:24.566Z,95250.83
2019-01-21T18:49:57.272Z,95245.45
2019-01-21T18:52:30.137Z,95247.42
2019-01-21T18:55:02.879Z,95239.05
2019-01-21T18:57:35.719Z,95246.14
2019-01-21T19:00:24.162Z,95248.88
2019-01-21T19:02:56.999Z,95245.22
2019-01-21T19:05:29.730Z,95240.59
2019-01-21T19:08:02.547Z,95244.11
2019-01-21T19:10:37.796Z,95238.98
2019-01-21T19:13:13.469Z,95242.14
2019-01-21T19:15:46.304Z,95242.70
2019-01-21T19:18:19.453Z,95241.67
2019-01-21T19:20:52.206Z,95234.72
2019-01-21T19:23:24.243Z,95237.84
2019-01-21T19:25:56.980Z,95230.91
2019-01-21T19:28:30.108Z,95233.89
2019-01-21T19:31:03.160Z,95242.72
2019-01-21T19:33:36.004Z,95241.57
2019-01-21T19:36:08.858Z,95239.05
2019-01-21T19:38:41.882Z,95239.92
2019-01-21T19:41:14.161Z,95246.70
2019-01-21T19:43:47.207Z,95245.64
2019-01-21T19:46:19.485Z,95242.59
2019-01-21T19:48:52.367Z,95243.50
2019-01-21T19:51:25.220Z,95242.41
2019-01-21T19:53:57.942Z,95244.78
2019-01-21T19:56:31.735Z,95234.95
2019-01-21T19:59:06.031Z,95237.71
2019-01-21T20:01:40.541Z,95240.08
2019-01-21T20:04:14.974Z,95241.36
2019-01-21T20:06:47.867Z,95245.93
2019-01-21T20:09:22.677Z,95251.48
2019-01-21T20:12:01.549Z,95249.42
2019-01-21T20:14:34.737Z,95242.73
2019-01-21T20:17:07.646Z,95242.56
2019-01-21T20:19:39.806Z,95253.33
2019-01-21T20:22:14.511Z,95254.68
2019-01-21T20:24:52.245Z,95258.81
2019-01-21T20:27:25.743Z,95249.79
2019-01-21T20:29:58.852Z,95251.43
2019-01-21T20:32:34.300Z,95243.13
2019-01-21T20:35:08.025Z,95243.02
2019-01-21T20:37:42.802Z,95240.27
2019-01-21T20:40:20.884Z,95234.19
2019-01-21T20:42:59.730Z,95238.39
2019-01-21T20:45:32.947Z,95235.28
2019-01-21T20:48:07.062Z,95232.36
2019-01-21T20:50:41.928Z,95238.00
2019-01-21T20:53:14.916Z,95231.47
2019-01-21T20:55:47.835Z,95230.33
2019-01-21T20:58:21.231Z,95234.03
2019-01-21T21:00:54.256Z,95232.72
2019-01-21T21:03:28.216Z,95239.05
2019-01-21T21:06:01.067Z,95238.30
2019-01-21T21:08:33.947Z,95245.94
2019-01-21T21:11:06.893Z,95238.86
2019-01-21T21:13:41.871Z,95230.31
2019-01-21T21:16:15.322Z,95240.83
2019-01-21T21:18:48.353Z,95238.30
2019-01-21T21:21:21.325Z,95237.45
2019-01-21T21:23:54.618Z,95240.92
2019-01-21T21:26:27.642Z,95240.86
2019-01-21T21:29:00.899Z,95241.91
2019-01-21T21:31:33.107Z,95242.98
2019-01-21T21:34:06.332Z,95232.39
2019-01-21T21:36:39.352Z,95235.34
2019-01-21T21:39:14.804Z,95228.25
2019-01-21T21:41:54.201Z,95230.42
2019-01-21T21:44:29.468Z,95234.52
2019-01-21T21:47:02.526Z,95234.69
2019-01-21T21:49:35.625Z,95231.25
2019-01-21T21:52:08.541Z,95233.61
2019-01-21T21:54:43.780Z,95230.78
2019-01-21T21:57:19.883Z,95227.93
2019-01-21T21:59:54.922Z,95226.29
2019-01-21T22:02:30.912Z,95228.78
2019-01-21T22:05:03.755Z,95227.41
2019-01-21T22:07:39.244Z,95223.36
2019-01-21T22:10:19.688Z,95230.48
2019-01-21T22:12:51.668Z,95222.70
2019-01-21T22:15:25.600Z,95223.29
2019-01-21T22:17:58.527Z,95219.03
2019-01-21T22:20:36.752Z,95215.72
2019-01-21T22:23:11.898Z,95220.34
2019-01-21T22:25:44.789Z,95215.55
2019-01-21T22:28:20.799Z,95220.19
2019-01-21T22:30:53.808Z,95219.00
2019-01-21T22:33:30.258Z,95221.30
2019-01-21T22:36:05.414Z,95218.43
2019-01-21T22:38:39.465Z,95218.72
2019-01-21T22:41:13.575Z,95215.44
2019-01-21T22:43:46.462Z,95216.41
2019-01-21T22:46:20.081Z,95224.42
2019-01-21T22:48:53.954Z,95217.70
2019-01-21T22:51:28.349Z,95217.33
2019-01-21T22:54:01.391Z,95212.34
2019-01-21T22:56:34.287Z,95210.73
2019-01-21T22:59:07.111Z,95219.69
2019-01-21T23:01:40.503Z,95211.80
2019-01-21T23:04:13.643Z,95216.41
2019-01-21T23:06:49.829Z,95207.56
2019-01-21T23:09:22.715Z,95204.19
2019-01-21T23:11:55.743Z,95201.30
2019-01-21T23:14:30.953Z,95205.64
2019-01-21T23:17:04.890Z,95197.58
2019-01-21T23:19:40.950Z,95196.30
2019-01-21T23:22:15.718Z,95199.67
2019-01-21T23:24:49.510Z,95191.54
2019-01-21T23:27:22.469Z,95193.84
2019-01-21T23:29:55.351Z,95182.09
2019-01-21T23:32:28.304Z,95183.86
2019-01-21T23:35:00.327Z,95178.35
2019-01-21T23:37:33.749Z,95181.38
2019-01-21T23:40:08.621Z,95174.64
2019-01-21T23:42:45.301Z,95176.38
2019-01-21T23:45:18.222Z,95167.53
2019-01-21T23:47:51.243Z,95162.41
2019-01-21T23:50:27.777Z,95151.39
2019-01-21T23:52:59.754Z,95150.50
2019-01-21T23:55:32.324Z,95148.96
2019-01-21T23:58:05.218Z,95146.14
